createdAt,value
2018-05-08T00:02:18.702Z,20.09
2018-05-08T00:04:44.572Z,20.06
2018-05-08T00:07:10.406Z,20.11
2018-05-08T00:09:36.230Z,20.02
2018-05-08T00:12:02.043Z,20.14
2018-05-08T00:14:27.900Z,20.08
2018-05-08T00:16:53.705Z,20.10
2018-05-08T00:19:19.568Z,20.10
2018-05-08T00:21:45.428Z,20.09
2018-05-08T00:24:11.238Z,20.14
2018-05-08T00:26:37.044Z,20.05
2018-05-08T00:29:14.388Z,20.03
2018-05-08T00:31:40.200Z,20.05
2018-05-08T00:34:06.000Z,20.11
2018-05-08T00:36:31.865Z,20.16
2018-05-08T00:38:57.669Z,20.12
2018-05-08T00:41:23.477Z,20.13
2018-05-08T00:43:49.375Z,20.06
2018-05-08T00:46:15.176Z,20.03
2018-05-08T00:48:40.989Z,20.00
2018-05-08T00:51:06.792Z,20.05
2018-05-08T00:53:32.619Z,20.09
2018-05-08T00:55:58.427Z,20.02
2018-05-08T00:58:24.294Z,20.11
2018-05-08T01:00:50.216Z,20.09
2018-05-08T01:03:16.138Z,20.03
2018-05-08T01:05:41.944Z,20.00
2018-05-08T01:08:07.756Z,19.97
2018-05-08T01:10:33.560Z,20.01
2018-05-08T01:12:59.372Z,19.97
2018-05-08T01:15:25.176Z,19.97
2018-05-08T01:17:50.984Z,20.02
2018-05-08T01:20:16.784Z,19.95
2018-05-08T01:22:42.650Z,19.93
2018-05-08T01:25:08.472Z,19.93
2018-05-08T01:27:34.277Z,19.97
2018-05-08T01:30:00.125Z,19.97
2018-05-08T01:32:25.933Z,19.99
2018-05-08T01:34:51.736Z,20.01
2018-05-08T01:37:17.555Z,20.04
2018-05-08T01:39:43.420Z,20.04
2018-05-08T01:42:09.244Z,20.02
2018-05-08T01:44:35.052Z,19.99
2018-05-08T01:47:00.868Z,20.02
2018-05-08T01:49:26.680Z,20.09
2018-05-08T01:51:52.534Z,19.99
2018-05-08T01:54:18.357Z,19.98
2018-05-08T01:56:44.194Z,19.92
2018-05-08T01:59:10.017Z,19.89
2018-05-08T02:01:35.915Z,19.93
2018-05-08T02:04:01.716Z,19.93
2018-05-08T02:06:27.624Z,19.96
2018-05-08T02:08:53.433Z,19.92
2018-05-08T02:11:19.608Z,19.96
2018-05-08T02:13:45.470Z,19.98
2018-05-08T02:16:11.276Z,20.02
2018-05-08T02:18:37.085Z,19.90
2018-05-08T02:21:02.955Z,19.94
2018-05-08T02:23:28.806Z,19.92
2018-05-08T02:25:54.710Z,19.90
2018-05-08T02:28:20.468Z,19.95
2018-05-08T02:30:46.280Z,19.94
2018-05-08T02:33:12.084Z,19.83
2018-05-08T02:35:37.893Z,19.93
2018-05-08T02:38:03.748Z,19.95
2018-05-08T02:40:29.548Z,19.91
2018-05-08T02:42:55.406Z,19.85
2018-05-08T02:45:21.212Z,19.88
2018-05-08T02:47:47.073Z,19.97
2018-05-08T02:50:12.934Z,19.94
2018-05-08T02:52:38.845Z,19.96
2018-05-08T02:55:04.637Z,19.89
2018-05-08T02:57:30.462Z,19.97
2018-05-08T02:59:56.313Z,19.91
2018-05-08T03:02:22.166Z,19.95
2018-05-08T03:04:47.976Z,19.89
2018-05-08T03:07:13.837Z,20.02
2018-05-08T03:09:39.650Z,19.97
2018-05-08T03:12:05.470Z,19.98
2018-05-08T03:14:31.329Z,19.98
2018-05-08T03:16:57.133Z,20.02
2018-05-08T03:19:23.072Z,19.90
2018-05-08T03:21:48.883Z,19.95
2018-05-08T03:24:14.759Z,19.89
2018-05-08T03:26:40.566Z,19.94
2018-05-08T03:29:06.388Z,19.92
2018-05-08T03:31:32.220Z,19.93
2018-05-08T03:33:58.092Z,19.91
2018-05-08T03:36:23.896Z,19.92
2018-05-08T03:38:49.732Z,19.93
2018-05-08T03:41:15.537Z,19.91
2018-05-08T03:43:41.344Z,19.85
2018-05-08T03:46:07.152Z,19.91
2018-05-08T03:48:33.122Z,19.90
2018-05-08T03:50:58.944Z,19.88
2018-05-08T03:53:24.751Z,19.98
2018-05-08T03:55:50.581Z,19.99
2018-05-08T03:58:16.401Z,19.94
2018-05-08T04:00:48.353Z,19.98
2018-05-08T04:03:20.428Z,19.85
2018-05-08T04:05:49.293Z,19.78
2018-05-08T04:11:07.237Z,19.72
2018-05-08T04:13:33.086Z,19.80
2018-05-08T04:15:59.835Z,19.87
2018-05-08T04:18:25.638Z,19.96
2018-05-08T04:20:51.440Z,19.91
2018-05-08T04:23:17.246Z,19.92
2018-05-08T04:25:43.052Z,19.97
2018-05-08T04:28:08.900Z,19.96
2018-05-08T04:30:34.704Z,20.02
2018-05-08T04:33:00.507Z,20.02
2018-05-08T04:35:26.308Z,20.01
2018-05-08T04:37:52.113Z,19.95
2018-05-08T04:40:17.968Z,19.99
2018-05-08T04:42:43.776Z,19.97
2018-05-08T04:45:09.572Z,19.88
2018-05-08T04:47:35.461Z,19.91
2018-05-08T04:50:02.951Z,19.96
2018-05-08T04:52:28.752Z,19.91
2018-05-08T04:54:54.577Z,19.85
2018-05-08T04:57:20.383Z,19.85
2018-05-08T04:59:46.251Z,19.94
2018-05-08T05:02:12.029Z,19.88
2018-05-08T05:04:37.829Z,19.86
2018-05-08T05:07:03.714Z,19.91
2018-05-08T05:09:29.465Z,19.89
2018-05-08T05:11:55.293Z,19.94
2018-05-08T05:14:21.219Z,19.88
2018-05-08T05:16:47.049Z,19.98
2018-05-08T05:19:12.856Z,19.92
2018-05-08T05:21:38.689Z,19.95
2018-05-08T05:24:04.495Z,19.96
2018-05-08T05:26:30.501Z,19.97
2018-05-08T05:28:56.301Z,19.97
2018-05-08T05:31:22.154Z,20.03
2018-05-08T05:33:47.962Z,20.02
2018-05-08T05:36:13.768Z,20.04
2018-05-08T05:38:39.572Z,20.11
2018-05-08T05:41:05.392Z,20.18
2018-05-08T05:43:31.220Z,20.15
2018-05-08T05:45:57.032Z,20.18
2018-05-08T05:48:22.836Z,20.08
2018-05-08T05:50:48.642Z,20.14
2018-05-08T05:53:14.829Z,20.19
2018-05-08T05:55:40.700Z,20.19
2018-05-08T05:58:06.496Z,20.21
2018-05-08T06:00:32.316Z,20.17
2018-05-08T06:02:58.172Z,20.30
2018-05-08T06:05:24.182Z,20.40
2018-05-08T06:07:50.005Z,20.57
2018-05-08T06:10:16.579Z,20.69
2018-05-08T06:12:42.405Z,20.73
2018-05-08T06:15:08.212Z,20.78
2018-05-08T06:17:34.054Z,20.80
2018-05-08T06:19:59.856Z,20.84
2018-05-08T06:22:25.675Z,20.88
2018-05-08T06:24:51.521Z,20.87
2018-05-08T06:27:17.444Z,20.89
2018-05-08T06:29:43.298Z,20.94
2018-05-08T06:32:09.184Z,20.92
2018-05-08T06:34:35.021Z,20.88
2018-05-08T06:37:00.896Z,20.90
2018-05-08T06:39:26.770Z,20.89
2018-05-08T06:41:52.585Z,20.87
2018-05-08T06:44:18.478Z,20.88
2018-05-08T06:46:44.359Z,20.87
2018-05-08T06:49:10.169Z,20.83
2018-05-08T06:51:35.968Z,20.86
2018-05-08T06:54:01.804Z,20.87
2018-05-08T06:56:27.653Z,20.87
2018-05-08T06:58:53.457Z,20.86
2018-05-08T07:01:19.263Z,20.88
2018-05-08T07:03:45.071Z,20.89
2018-05-08T07:06:10.912Z,20.86
2018-05-08T07:08:36.825Z,20.86
2018-05-08T07:11:02.674Z,20.85
2018-05-08T07:13:28.517Z,20.84
2018-05-08T07:15:54.450Z,20.83
2018-05-08T07:18:20.160Z,20.81
2018-05-08T07:20:45.969Z,20.82
2018-05-08T07:23:11.777Z,20.81
2018-05-08T07:25:37.576Z,20.83
2018-05-08T07:28:03.382Z,20.81
2018-05-08T07:30:29.197Z,20.80
2018-05-08T07:32:55.057Z,20.79
2018-05-08T07:35:20.866Z,20.83
2018-05-08T07:37:46.667Z,20.80
2018-05-08T07:40:12.469Z,20.78
2018-05-08T07:42:38.308Z,20.73
2018-05-08T07:45:04.226Z,20.73
2018-05-08T07:47:30.029Z,20.77
2018-05-08T07:49:55.844Z,20.77
2018-05-08T07:52:21.671Z,20.80
2018-05-08T07:54:47.501Z,20.77
2018-05-08T07:57:13.300Z,20.77
2018-05-08T07:59:39.105Z,20.75
2018-05-08T08:02:04.962Z,20.73
2018-05-08T08:04:30.761Z,20.75
2018-05-08T08:06:56.561Z,20.71
2018-05-08T08:09:22.487Z,20.74
2018-05-08T08:11:48.300Z,20.75
2018-05-08T08:14:14.145Z,20.70
2018-05-08T08:16:40.056Z,20.71
2018-05-08T08:19:05.864Z,20.73
2018-05-08T08:21:31.726Z,20.65
2018-05-08T08:23:57.528Z,20.66
2018-05-08T08:26:23.365Z,20.71
2018-05-08T08:28:49.204Z,20.70
2018-05-08T08:31:15.025Z,20.64
2018-05-08T08:33:40.833Z,20.67
2018-05-08T08:36:06.693Z,20.69
2018-05-08T08:38:32.488Z,20.68
2018-05-08T08:40:58.394Z,20.69
2018-05-08T08:43:24.140Z,20.69
2018-05-08T08:45:49.981Z,20.67
2018-05-08T08:48:15.816Z,20.62
2018-05-08T08:50:41.620Z,20.67
2018-05-08T08:53:07.452Z,20.65
2018-05-08T08:55:33.306Z,20.63
2018-05-08T08:57:59.117Z,20.67
2018-05-08T09:00:24.921Z,20.68
2018-05-08T09:02:50.766Z,20.66
2018-05-08T09:05:16.569Z,20.68
2018-05-08T09:07:42.507Z,20.64
2018-05-08T09:10:08.309Z,20.62
2018-05-08T09:12:34.113Z,20.67
2018-05-08T09:14:59.937Z,20.63
2018-05-08T09:17:25.744Z,20.64
2018-05-08T09:19:51.747Z,20.68
2018-05-08T09:22:17.427Z,20.67
2018-05-08T09:24:43.225Z,20.70
2018-05-08T09:27:09.020Z,20.62
2018-05-08T09:29:34.857Z,20.67
2018-05-08T09:32:00.660Z,20.67
2018-05-08T09:34:26.456Z,20.69
2018-05-08T09:36:52.256Z,20.67
2018-05-08T09:39:18.057Z,20.66
2018-05-08T09:41:43.956Z,20.68
2018-05-08T09:44:09.761Z,20.67
2018-05-08T09:46:35.564Z,20.67
2018-05-08T09:49:01.457Z,20.64
2018-05-08T09:51:27.217Z,20.63
2018-05-08T09:53:53.019Z,20.68
2018-05-08T09:56:18.852Z,20.63
2018-05-08T09:58:44.658Z,20.67
2018-05-08T10:01:10.464Z,20.62
2018-05-08T10:03:36.268Z,20.61
2018-05-08T10:06:02.075Z,20.62
2018-05-08T10:08:27.880Z,20.62
2018-05-08T10:10:53.681Z,20.63
2018-05-08T10:13:19.481Z,20.63
2018-05-08T10:15:45.289Z,20.67
2018-05-08T10:18:11.085Z,20.59
2018-05-08T10:20:36.904Z,20.60
2018-05-08T10:23:02.776Z,20.65
2018-05-08T10:25:28.577Z,20.61
2018-05-08T10:27:54.434Z,20.62
2018-05-08T10:30:20.238Z,20.61
2018-05-08T10:32:46.053Z,20.54
2018-05-08T10:35:11.893Z,20.58
2018-05-08T10:37:37.738Z,20.58
2018-05-08T10:40:03.556Z,20.59
2018-05-08T10:42:29.357Z,20.60
2018-05-08T10:44:55.157Z,20.56
2018-05-08T10:47:20.965Z,20.61
2018-05-08T10:49:46.815Z,20.53
2018-05-08T10:52:12.613Z,20.56
2018-05-08T10:54:38.445Z,20.56
2018-05-08T10:57:04.257Z,20.56
2018-05-08T10:59:30.101Z,20.59
2018-05-08T11:01:56.007Z,20.56
2018-05-08T11:04:21.849Z,20.55
2018-05-08T11:06:47.673Z,20.61
2018-05-08T11:09:13.484Z,20.55
2018-05-08T11:11:39.284Z,20.61
2018-05-08T11:14:05.094Z,20.52
2018-05-08T11:16:30.897Z,20.52
2018-05-08T11:18:56.708Z,20.48
2018-05-08T11:21:22.513Z,20.56
2018-05-08T11:23:48.318Z,20.51
2018-05-08T11:26:14.142Z,20.56
2018-05-08T11:28:39.948Z,20.53
2018-05-08T11:31:05.753Z,20.52
2018-05-08T11:33:31.561Z,20.46
2018-05-08T11:35:57.372Z,20.52
2018-05-08T11:38:23.179Z,20.58
2018-05-08T11:40:49.021Z,20.53
2018-05-08T11:43:14.830Z,20.51
2018-05-08T11:45:40.633Z,20.56
2018-05-08T11:48:20.260Z,20.51
2018-05-08T11:50:56.040Z,20.43
2018-05-08T11:53:21.845Z,20.39
2018-05-08T11:55:47.697Z,20.43
2018-05-08T11:58:13.839Z,20.44
2018-05-08T12:00:39.649Z,20.47
2018-05-08T12:03:05.448Z,20.45
2018-05-08T12:05:31.274Z,20.43
2018-05-08T12:07:57.135Z,20.47
2018-05-08T12:10:22.932Z,20.47
2018-05-08T12:12:48.729Z,20.47
2018-05-08T12:15:14.595Z,20.43
2018-05-08T12:20:21.899Z,20.28
2018-05-08T12:22:47.696Z,20.35
2018-05-08T12:25:14.272Z,20.39
2018-05-08T12:27:41.044Z,20.44
2018-05-08T12:30:07.764Z,20.44
2018-05-08T12:32:34.507Z,20.46
2018-05-08T12:35:00.253Z,20.45
2018-05-08T12:37:26.053Z,20.39
2018-05-08T12:39:51.928Z,20.42
2018-05-08T12:42:17.744Z,20.45
2018-05-08T12:44:44.565Z,20.44
2018-05-08T12:47:10.372Z,20.48
2018-05-08T12:49:37.100Z,20.41
2018-05-08T12:52:02.900Z,20.39
2018-05-08T12:54:28.773Z,20.47
2018-05-08T12:56:55.587Z,20.46
2018-05-08T12:59:21.385Z,20.45
2018-05-08T13:01:47.225Z,20.42
2018-05-08T13:04:13.901Z,20.43
2018-05-08T13:06:40.712Z,20.42
2018-05-08T13:09:06.592Z,20.44
2018-05-08T13:11:33.369Z,20.44
2018-05-08T13:13:59.204Z,20.39
2018-05-08T13:16:25.848Z,20.47
2018-05-08T13:18:51.784Z,20.45
2018-05-08T13:21:18.559Z,20.44
2018-05-08T13:23:45.355Z,20.42
2018-05-08T13:26:11.189Z,20.44
2018-05-08T13:28:37.813Z,20.43
2018-05-08T13:31:04.624Z,20.39
2018-05-08T13:33:31.416Z,20.47
2018-05-08T13:35:58.241Z,20.44
2018-05-08T13:38:24.041Z,20.42
2018-05-08T13:40:50.641Z,20.41
2018-05-08T13:43:17.410Z,20.41
2018-05-08T13:45:43.310Z,20.39
2018-05-08T13:48:10.306Z,20.40
2018-05-08T13:50:36.057Z,20.44
2018-05-08T13:53:02.006Z,20.45
2018-05-08T13:55:27.860Z,20.43
2018-05-08T13:57:54.482Z,20.41
2018-05-08T14:00:20.281Z,20.42
2018-05-08T14:02:46.076Z,20.41
2018-05-08T14:05:11.989Z,20.45
2018-05-08T14:07:37.839Z,20.37
2018-05-08T14:10:04.642Z,20.45
2018-05-08T14:12:30.476Z,20.40
2018-05-08T14:14:56.312Z,20.40
2018-05-08T14:17:22.112Z,20.38
2018-05-08T14:19:47.913Z,20.38
2018-05-08T14:22:13.713Z,20.40
2018-05-08T14:24:39.566Z,20.40
2018-05-08T14:27:05.422Z,20.40
2018-05-08T14:29:31.437Z,20.39
2018-05-08T14:31:57.069Z,20.40
2018-05-08T14:34:22.865Z,20.43
2018-05-08T14:36:48.660Z,20.43
2018-05-08T14:39:14.463Z,20.38
2018-05-08T14:41:40.308Z,20.45
2018-05-08T14:44:06.108Z,20.42
2018-05-08T14:46:31.909Z,20.38
2018-05-08T14:48:57.714Z,20.42
2018-05-08T14:51:23.556Z,20.43
2018-05-08T14:53:49.357Z,20.39
2018-05-08T14:56:15.161Z,20.40
2018-05-08T14:58:40.974Z,20.37
2018-05-08T15:01:06.776Z,20.37
2018-05-08T15:03:32.664Z,20.45
2018-05-08T15:05:59.461Z,20.39
2018-05-08T15:08:25.265Z,20.47
2018-05-08T15:10:51.101Z,20.48
2018-05-08T15:13:17.905Z,20.41
2018-05-08T15:15:44.096Z,20.35
2018-05-08T15:18:09.893Z,20.41
2018-05-08T15:20:35.737Z,20.45
2018-05-08T15:23:01.537Z,20.40
2018-05-08T15:25:27.331Z,20.35
2018-05-08T15:27:53.121Z,20.38
2018-05-08T15:30:18.920Z,20.37
2018-05-08T15:32:45.633Z,20.33
2018-05-08T15:35:11.444Z,20.35
2018-05-08T15:37:38.121Z,20.38
2018-05-08T15:40:03.921Z,20.35
2018-05-08T15:42:29.768Z,20.42
2018-05-08T15:44:55.566Z,20.40
2018-05-08T15:47:21.508Z,20.39
2018-05-08T15:49:47.264Z,20.43
2018-05-08T15:52:14.041Z,20.37
2018-05-08T15:54:39.850Z,20.36
2018-05-08T15:57:05.697Z,20.39
2018-05-08T15:59:31.489Z,20.41
2018-05-08T16:01:58.104Z,20.39
2018-05-08T16:04:23.905Z,20.33
2018-05-08T16:06:50.640Z,20.45
2018-05-08T16:09:16.477Z,20.36
2018-05-08T16:11:43.100Z,20.41
2018-05-08T16:14:08.933Z,20.41
2018-05-08T16:16:35.032Z,20.39
2018-05-08T16:19:01.909Z,20.43
2018-05-08T16:21:27.793Z,20.38
2018-05-08T16:23:53.592Z,20.35
2018-05-08T16:26:19.432Z,20.39
2018-05-08T16:28:45.281Z,20.43
2018-05-08T16:31:11.948Z,20.40
2018-05-08T16:33:37.785Z,20.39
2018-05-08T16:36:03.591Z,20.39
2018-05-08T16:38:30.276Z,20.44
2018-05-08T16:40:56.076Z,20.36
2018-05-08T16:43:22.860Z,20.39
2018-05-08T16:45:48.697Z,20.37
2018-05-08T16:48:15.501Z,20.38
2018-05-08T16:50:41.338Z,20.38
2018-05-08T16:53:08.006Z,20.43
2018-05-08T16:55:34.856Z,20.44
2018-05-08T16:58:00.653Z,20.41
2018-05-08T17:00:26.493Z,20.36
2018-05-08T17:02:53.147Z,20.42
2018-05-08T17:05:18.945Z,20.39
2018-05-08T17:07:44.758Z,20.41
2018-05-08T17:10:11.545Z,20.37
2018-05-08T17:12:37.729Z,20.33
2018-05-08T17:15:04.322Z,20.40
2018-05-08T17:17:30.184Z,20.37
2018-05-08T17:19:55.985Z,20.35
2018-05-08T17:22:21.789Z,20.36
2018-05-08T17:24:47.664Z,20.36
2018-05-08T17:27:14.405Z,20.41
2018-05-08T17:29:40.248Z,20.40
2018-05-08T17:32:06.893Z,20.43
2018-05-08T17:34:32.744Z,20.38
2018-05-08T17:36:58.557Z,20.41
2018-05-08T17:39:24.353Z,20.40
2018-05-08T17:41:50.196Z,20.42
2018-05-08T17:44:16.776Z,20.35
2018-05-08T17:46:43.539Z,20.35
2018-05-08T17:49:10.180Z,20.36
2018-05-08T17:51:36.033Z,20.40
2018-05-08T17:54:01.836Z,20.38
2018-05-08T17:56:27.638Z,20.42
2018-05-08T17:58:53.437Z,20.39
2018-05-08T18:01:19.245Z,20.39
2018-05-08T18:03:45.049Z,20.38
2018-05-08T18:06:10.855Z,20.42
2018-05-08T18:08:36.653Z,20.40
2018-05-08T18:11:03.581Z,20.44
2018-05-08T18:13:29.422Z,20.35
2018-05-08T18:15:55.254Z,20.39
2018-05-08T18:18:21.056Z,20.45
2018-05-08T18:20:46.863Z,20.42
2018-05-08T18:23:12.660Z,20.58
2018-05-08T18:25:39.438Z,20.69
2018-05-08T18:28:05.238Z,20.82
2018-05-08T18:30:31.041Z,20.89
2018-05-08T18:32:56.841Z,20.93
2018-05-08T18:35:22.650Z,20.97
2018-05-08T18:37:48.448Z,21.01
2018-05-08T18:40:14.257Z,21.04
2018-05-08T18:42:40.074Z,21.06
2018-05-08T18:45:05.890Z,21.07
2018-05-08T18:47:32.720Z,21.08
2018-05-08T18:49:59.375Z,21.06
2018-05-08T18:52:25.174Z,21.06
2018-05-08T18:54:50.982Z,21.08
2018-05-08T18:57:16.785Z,21.07
2018-05-08T18:59:42.593Z,21.05
2018-05-08T19:02:09.382Z,21.04
2018-05-08T19:04:35.269Z,21.03
2018-05-08T19:07:01.111Z,21.06
2018-05-08T19:09:27.029Z,21.03
2018-05-08T19:11:52.838Z,21.02
2018-05-08T19:14:18.640Z,21.04
2018-05-08T19:16:45.304Z,21.02
2018-05-08T19:19:17.283Z,21.01
2018-05-08T19:21:43.181Z,20.98
2018-05-08T19:24:15.216Z,20.97
2018-05-08T19:26:41.828Z,20.96
2018-05-08T19:29:13.704Z,20.95
2018-05-08T19:31:39.601Z,20.96
2018-05-08T19:34:05.406Z,20.95
2018-05-08T19:36:37.376Z,20.96
2018-05-08T19:39:03.274Z,20.93
2018-05-08T19:41:29.224Z,20.93
2018-05-08T19:43:55.148Z,20.95
2018-05-08T19:46:21.060Z,20.93
2018-05-08T19:48:47.657Z,20.91
2018-05-08T19:51:14.528Z,20.90
2018-05-08T19:53:40.316Z,20.92
2018-05-08T19:56:06.121Z,20.89
2018-05-08T19:58:31.935Z,20.89
2018-05-08T20:00:57.749Z,20.92
2018-05-08T20:03:24.417Z,20.88
2018-05-08T20:05:50.281Z,20.87
2018-05-08T20:08:16.132Z,20.85
2018-05-08T20:10:41.945Z,20.84
2018-05-08T20:13:07.840Z,20.87
2018-05-08T20:15:33.688Z,20.85
2018-05-08T20:17:59.496Z,20.86
2018-05-08T20:20:25.309Z,20.84
2018-05-08T20:22:51.225Z,20.85
2018-05-08T20:25:17.086Z,20.85
2018-05-08T20:27:43.176Z,20.85
2018-05-08T20:30:09.997Z,20.82
2018-05-08T20:32:36.717Z,20.82
2018-05-08T20:35:02.529Z,20.84
2018-05-08T20:37:28.336Z,20.82
2018-05-08T20:39:55.647Z,20.82
2018-05-08T20:42:22.275Z,20.78
2018-05-08T20:44:48.125Z,20.80
2018-05-08T20:47:14.605Z,20.82
2018-05-08T20:49:41.281Z,20.78
2018-05-08T20:52:08.229Z,20.79
2018-05-08T20:54:34.076Z,20.80
2018-05-08T20:56:59.911Z,20.74
2018-05-08T20:59:26.569Z,20.76
2018-05-08T21:01:52.377Z,20.71
2018-05-08T21:04:18.187Z,20.71
2018-05-08T21:06:44.001Z,20.73
2018-05-08T21:09:10.821Z,20.71
2018-05-08T21:11:36.617Z,20.70
2018-05-08T21:14:02.443Z,20.72
2018-05-08T21:16:28.260Z,20.66
2018-05-08T21:18:54.073Z,20.71
2018-05-08T21:21:19.879Z,20.64
2018-05-08T21:23:45.683Z,20.68
2018-05-08T21:26:12.344Z,20.69
2018-05-08T21:28:44.252Z,20.69
2018-05-08T21:31:13.157Z,20.61
2018-05-08T21:33:39.086Z,20.62
2018-05-08T21:36:04.967Z,20.63
2018-05-08T21:38:30.777Z,20.63
2018-05-08T21:40:56.585Z,20.66
2018-05-08T21:43:23.017Z,20.69
2018-05-08T21:45:48.824Z,20.65
2018-05-08T21:48:14.643Z,20.65
2018-05-08T21:50:41.106Z,20.67
2018-05-08T21:53:07.848Z,20.56
2018-05-08T21:55:33.656Z,20.57
2018-05-08T21:58:00.368Z,20.63
2018-05-08T22:00:26.172Z,20.65
2018-05-08T22:02:53.115Z,20.63
2018-05-08T22:05:19.783Z,20.61
2018-05-08T22:07:45.593Z,20.63
2018-05-08T22:10:11.390Z,20.65
2018-05-08T22:12:37.192Z,20.64
2018-05-08T22:15:03.005Z,20.59
2018-05-08T22:17:28.812Z,20.62
2018-05-08T22:19:54.614Z,20.62
2018-05-08T22:22:20.491Z,20.62
2018-05-08T22:24:46.514Z,20.64
2018-05-08T22:27:12.312Z,20.61
2018-05-08T22:29:38.157Z,20.55
2018-05-08T22:32:04.013Z,20.55
2018-05-08T22:34:30.709Z,20.60
2018-05-08T22:36:56.516Z,20.58
2018-05-08T22:39:22.316Z,20.58
2018-05-08T22:41:48.289Z,20.57
2018-05-08T22:44:14.097Z,20.55
2018-05-08T22:46:39.960Z,20.54
2018-05-08T22:49:05.769Z,20.49
2018-05-08T22:51:31.573Z,20.54
2018-05-08T22:53:57.579Z,20.57
2018-05-08T22:56:23.381Z,20.53
2018-05-08T22:58:49.232Z,20.54
2018-05-08T23:01:15.041Z,20.50
2018-05-08T23:03:40.881Z,20.55
2018-05-08T23:06:06.685Z,20.51
2018-05-08T23:08:32.525Z,20.53
2018-05-08T23:10:58.329Z,20.47
2018-05-08T23:13:24.209Z,20.48
2018-05-08T23:15:50.061Z,20.50
2018-05-08T23:18:16.732Z,20.48
2018-05-08T23:20:42.536Z,20.44
2018-05-08T23:23:08.339Z,20.45
2018-05-08T23:25:34.233Z,20.45
2018-05-08T23:28:00.037Z,20.47
2018-05-08T23:30:25.843Z,20.49
2018-05-08T23:32:51.704Z,20.47
2018-05-08T23:35:17.534Z,20.47
2018-05-08T23:37:43.397Z,20.48
2018-05-08T23:40:09.241Z,20.47
2018-05-08T23:42:36.042Z,20.45
2018-05-08T23:45:01.849Z,20.47
2018-05-08T23:47:27.652Z,20.44
2018-05-08T23:49:53.457Z,20.50
2018-05-08T23:52:19.259Z,20.41
2018-05-08T23:54:45.060Z,20.49
2018-05-08T23:57:10.864Z,20.42
2018-05-08T23:59:37.745Z,20.43
